PAUN/UNK METAR and TAF weather

Enter ICAO airport designator
Station Type Date Time Source
PAUN METAR 2021/08/05 04:56 UTC NOAA

PAUN 050456Z AUTO 20011KT 10SM FEW095 19/16 A2967 RMK AO2 WSHFT 0424 SLP051 T01890156 PNO $


Station Type Date Time Source
PAUN Decoded METAR 2021/08/05 04:56 UTC NOAA

Unalakleet, AK, United States (PAUN) 63-53N 160-48W 6M
Aug 05, 2021 - 12:56 AM EDT / 2021.08.05 0456 UTC
Wind: from the SSW (200 degrees) at 13 MPH (11 KT):0
Visibility: 10 mile(s):0
Sky conditions: mostly clear
Temperature: 66.0 F (18.9 C)
Dew Point: 60.1 F (15.6 C)
Relative Humidity: 81%
Pressure (altimeter): 29.67 in. Hg (1004 hPa)
ob: PAUN 050456Z AUTO 20011KT 10SM FEW095 19/16 A2967 RMK AO2 WSHFT 0424 SLP051 T01890156 PNO
cycle: 5

Station Type Date Time Source
PAUN TAF 2021/08/04 18:40 UTC NOAA

TAF PAUN 041737Z 0418/0518 11008KT P6SM SKC
FM041900 10015KT P6SM SKC
FM050300 09011KT P6SM VCSH SCT050 OVC100
FM050900 20012KT P6SM VCSH SCT050 OVC100

Example: see airport list